CheckWX is a tool to help pilots better visualize weather data.  It is not intended as a substitute for an official pre-flight weather briefing.

16:33:50 UTC

LLBG TAF
Ben Gurion International Airport
Tel Aviv, Israel
TAF LLBG 061702Z 0618/0718 VRB03KT 9999 FEW017 SCT025 TEMPO 0618/0706 7000 SCT015 BKN020 BECMG 0707/0709 30008KT FEW030 BECMG 0715/0717 34005KT SCT025 TX21/0711Z TN15/0703Z

Apr-6@
18:00 UTC

Apr-6 @ 18:00 UTC

Apr-7@
07:00 UTC

Apr-7 @ 07:00 UTC

TAF LLBG 061702Z 0618/0718 VRB03KT 9999 FEW017 SCT025

Expired

Wind
  • Variable at 3 KTS
Cloud Levels
  • Few at 1,700' AGL
  • Scattered at 2,500' AGL

Apr-6@
18:00 UTC

Apr-6 @ 18:00 UTC

Apr-7@
06:00 UTC

Apr-7 @ 06:00 UTC

TEMPO 0618/0706 7000 SCT015 BKN020

Expired

Cloud Levels
  • Scattered at 1,500' AGL
  • Broken at 2,000' AGL

Apr-7@
07:00 UTC

Apr-7 @ 07:00 UTC

Apr-7@
15:00 UTC

Apr-7 @ 15:00 UTC

BECMG 0707/0709 30008KT FEW030

Expired

Wind
  • 300° at 8 KTS
Cloud Levels
  • Few at 3,000' AGL

Apr-7@
15:00 UTC

Apr-7 @ 15:00 UTC

Apr-7@
18:00 UTC

Apr-7 @ 18:00 UTC

BECMG 0715/0717 34005KT SCT025 TX21/0711Z TN15/0703Z

Becoming

Becoming Conditions expected by Tue, Apr 7, 2020 @ 17:00 UTC

Wind
  • 340° at 5 KTS
Cloud Levels
  • Scattered at 2,500' AGL